createdAt,value
2018-08-09T00:00:48.313Z,1027.27
2018-08-09T00:01:48.311Z,1027.26
2018-08-09T00:02:48.308Z,1027.26
2018-08-09T00:03:48.306Z,1027.25
2018-08-09T00:04:48.305Z,1027.22
2018-08-09T00:05:48.303Z,1027.25
2018-08-09T00:06:48.302Z,1027.27
2018-08-09T00:07:48.299Z,1027.26
2018-08-09T00:08:48.297Z,1027.25
2018-08-09T00:09:48.294Z,1027.27
2018-08-09T00:10:48.292Z,1027.26
2018-08-09T00:11:48.291Z,1027.24
2018-08-09T00:12:48.290Z,1027.24
2018-08-09T00:13:48.287Z,1027.23
2018-08-09T00:14:48.288Z,1027.27
2018-08-09T00:15:48.284Z,1027.29
2018-08-09T00:16:48.282Z,1027.3
2018-08-09T00:17:48.280Z,1027.25
2018-08-09T00:18:48.279Z,1027.34
2018-08-09T00:19:48.276Z,1027.34
2018-08-09T00:20:48.275Z,1027.37
2018-08-09T00:21:48.273Z,1027.34
2018-08-09T00:22:48.271Z,1027.35
2018-08-09T00:23:48.286Z,1027.36
2018-08-09T00:24:48.270Z,1027.36
2018-08-09T00:25:48.264Z,1027.37
2018-08-09T00:26:48.263Z,1027.4
2018-08-09T00:27:48.261Z,1027.42
2018-08-09T00:28:48.260Z,1027.37
2018-08-09T00:29:48.258Z,1027.38
2018-08-09T00:30:48.257Z,1027.42
2018-08-09T00:31:48.255Z,1027.39
2018-08-09T00:32:48.252Z,1027.42
2018-08-09T00:33:48.250Z,1027.4
2018-08-09T00:34:48.248Z,1027.41
2018-08-09T00:35:48.245Z,1027.46
2018-08-09T00:36:48.245Z,1027.46
2018-08-09T00:37:48.242Z,1027.46
2018-08-09T00:38:48.239Z,1027.45
2018-08-09T00:39:48.238Z,1027.49
2018-08-09T00:40:48.236Z,1027.51
2018-08-09T00:41:48.234Z,1027.51
2018-08-09T00:42:48.232Z,1027.48
2018-08-09T00:43:48.230Z,1027.5
2018-08-09T00:44:48.241Z,1027.53
2018-08-09T00:45:48.226Z,1027.55
2018-08-09T00:46:48.223Z,1027.52
2018-08-09T00:47:48.222Z,1027.55
2018-08-09T00:48:48.221Z,1027.58
2018-08-09T00:49:48.216Z,1027.6
2018-08-09T00:50:48.214Z,1027.62
2018-08-09T00:51:48.214Z,1027.57
2018-08-09T00:52:48.213Z,1027.57
2018-08-09T00:53:48.209Z,1027.62
2018-08-09T00:54:48.207Z,1027.61
2018-08-09T00:55:48.205Z,1027.63
2018-08-09T00:56:48.203Z,1027.64
2018-08-09T00:57:48.200Z,1027.64
2018-08-09T00:58:48.202Z,1027.65
2018-08-09T00:59:48.196Z,1027.72
2018-08-09T01:00:48.193Z,1027.71
2018-08-09T01:01:48.191Z,1027.73
2018-08-09T01:02:48.190Z,1027.74
2018-08-09T01:03:48.188Z,1027.74
2018-08-09T01:04:48.185Z,1027.74
2018-08-09T01:05:48.183Z,1027.75
2018-08-09T01:06:48.181Z,1027.78
2018-08-09T01:07:48.179Z,1027.8
2018-08-09T01:08:48.176Z,1027.83
2018-08-09T01:09:48.174Z,1027.8
2018-08-09T01:10:48.173Z,1027.83
2018-08-09T01:11:48.174Z,1027.83
2018-08-09T01:12:48.168Z,1027.81
2018-08-09T01:13:48.166Z,1027.85
2018-08-09T01:15:48.161Z,1027.83
2018-08-09T01:16:48.159Z,1027.85
2018-08-09T01:17:48.157Z,1027.87
2018-08-09T01:18:48.155Z,1027.9
2018-08-09T01:19:48.154Z,1027.91
2018-08-09T01:20:48.152Z,1027.92
2018-08-09T01:21:48.147Z,1027.89
2018-08-09T01:22:48.146Z,1027.91
2018-08-09T01:23:48.142Z,1027.88
2018-08-09T01:24:48.140Z,1027.87
2018-08-09T01:25:48.138Z,1027.86
2018-08-09T01:26:48.135Z,1027.86
2018-08-09T01:27:48.133Z,1027.84
2018-08-09T01:28:48.131Z,1027.82
2018-08-09T01:29:48.129Z,1027.82
2018-08-09T01:30:48.125Z,1027.82
2018-08-09T01:31:48.123Z,1027.82
2018-08-09T01:32:48.144Z,1027.83
2018-08-09T01:33:48.118Z,1027.85
2018-08-09T01:34:48.116Z,1027.88
2018-08-09T01:35:48.115Z,1027.91
2018-08-09T01:36:48.112Z,1027.88
2018-08-09T01:37:48.109Z,1027.93
2018-08-09T01:38:48.108Z,1027.94
2018-08-09T01:39:48.113Z,1027.98
2018-08-09T01:40:48.103Z,1027.98
2018-08-09T01:41:48.109Z,1027.96
2018-08-09T01:42:48.101Z,1027.98
2018-08-09T01:43:48.095Z,1027.99
2018-08-09T01:44:48.094Z,1027.94
2018-08-09T01:45:48.090Z,1027.95
2018-08-09T01:46:48.089Z,1027.93
2018-08-09T01:47:48.087Z,1027.97
2018-08-09T01:48:48.084Z,1027.97
2018-08-09T01:49:48.082Z,1027.94
2018-08-09T01:50:48.092Z,1027.94
2018-08-09T01:51:48.079Z,1027.92
2018-08-09T01:52:48.276Z,1027.95
2018-08-09T01:53:48.073Z,1027.95
2018-08-09T01:54:48.073Z,1027.95
2018-08-09T01:55:48.068Z,1027.95
2018-08-09T01:56:48.071Z,1027.94
2018-08-09T01:57:48.064Z,1027.96
2018-08-09T01:58:48.062Z,1027.92
2018-08-09T02:00:48.060Z,1027.91
2018-08-09T02:01:48.058Z,1027.93
2018-08-09T02:02:48.053Z,1027.93
2018-08-09T02:03:48.051Z,1027.88
2018-08-09T02:04:48.149Z,1027.9
2018-08-09T02:05:48.047Z,1027.86
2018-08-09T02:06:48.043Z,1027.84
2018-08-09T02:07:48.057Z,1027.89
2018-08-09T02:08:48.040Z,1027.91
2018-08-09T02:09:48.038Z,1027.87
2018-08-09T02:10:48.036Z,1027.86
2018-08-09T02:11:48.038Z,1027.87
2018-08-09T02:12:48.032Z,1027.86
2018-08-09T02:13:48.029Z,1027.9
2018-08-09T02:14:48.027Z,1027.91
2018-08-09T02:15:48.029Z,1027.89
2018-08-09T02:16:48.031Z,1027.93
2018-08-09T02:17:48.020Z,1027.91
2018-08-09T02:18:48.018Z,1027.92
2018-08-09T02:19:48.016Z,1027.94
2018-08-09T02:20:48.014Z,1027.93
2018-08-09T02:21:48.016Z,1027.93
2018-08-09T02:22:48.010Z,1027.94
2018-08-09T02:23:48.008Z,1027.94
2018-08-09T02:24:48.005Z,1027.98
2018-08-09T02:25:48.004Z,1027.92
2018-08-09T02:26:48.002Z,1027.99
2018-08-09T02:27:48.002Z,1027.91
2018-08-09T02:28:47.997Z,1027.97
2018-08-09T02:29:47.995Z,1028.01
2018-08-09T02:30:47.996Z,1027.96
2018-08-09T02:31:47.993Z,1027.92
2018-08-09T02:32:47.990Z,1027.98
2018-08-09T02:33:47.988Z,1027.95
2018-08-09T02:34:47.989Z,1028.01
2018-08-09T02:35:47.984Z,1028
2018-08-09T02:36:47.983Z,1028.03
2018-08-09T02:37:47.979Z,1028.04
2018-08-09T02:38:47.978Z,1028.09
2018-08-09T02:39:47.975Z,1028.04
2018-08-09T02:40:47.977Z,1028.08
2018-08-09T02:41:47.972Z,1028.1
2018-08-09T02:42:47.969Z,1028.07
2018-08-09T02:43:47.966Z,1028.09
2018-08-09T02:44:47.965Z,1028.15
2018-08-09T02:45:47.964Z,1028.15
2018-08-09T02:46:48.027Z,1028.19
2018-08-09T02:47:47.959Z,1028.2
2018-08-09T02:48:47.957Z,1028.24
2018-08-09T02:49:47.956Z,1028.25
2018-08-09T02:50:47.952Z,1028.27
2018-08-09T02:51:47.950Z,1028.26
2018-08-09T02:52:47.948Z,1028.28
2018-08-09T02:53:47.947Z,1028.28
2018-08-09T02:54:47.944Z,1028.31
2018-08-09T02:55:47.942Z,1028.32
2018-08-09T02:56:47.941Z,1028.36
2018-08-09T02:57:47.937Z,1028.32
2018-08-09T02:58:47.936Z,1028.33
2018-08-09T02:59:47.938Z,1028.28
2018-08-09T03:00:47.931Z,1028.29
2018-08-09T03:01:47.929Z,1028.23
2018-08-09T03:02:47.927Z,1028.3
2018-08-09T03:03:47.926Z,1028.29
2018-08-09T03:04:47.924Z,1028.3
2018-08-09T03:05:47.920Z,1028.31
2018-08-09T03:06:47.919Z,1028.39
2018-08-09T03:07:47.925Z,1028.33
2018-08-09T03:08:47.914Z,1028.39
2018-08-09T03:09:47.914Z,1028.4
2018-08-09T03:10:47.910Z,1028.38
2018-08-09T03:11:47.909Z,1028.4
2018-08-09T03:12:47.905Z,1028.42
2018-08-09T03:13:47.903Z,1028.42
2018-08-09T03:14:47.900Z,1028.46
2018-08-09T03:15:47.898Z,1028.42
2018-08-09T03:16:47.898Z,1028.43
2018-08-09T03:17:47.894Z,1028.44
2018-08-09T03:18:47.891Z,1028.46
2018-08-09T03:19:47.888Z,1028.44
2018-08-09T03:20:47.887Z,1028.46
2018-08-09T03:21:47.885Z,1028.43
2018-08-09T03:22:47.882Z,1028.47
2018-08-09T03:23:47.879Z,1028.49
2018-08-09T03:24:47.877Z,1028.53
2018-08-09T03:25:47.875Z,1028.58
2018-08-09T03:26:47.874Z,1028.58
2018-08-09T03:27:47.871Z,1028.58
2018-08-09T03:28:47.868Z,1028.6
2018-08-09T03:29:47.866Z,1028.64
2018-08-09T03:30:47.864Z,1028.63
2018-08-09T03:31:47.862Z,1028.67
2018-08-09T03:32:47.858Z,1028.67
2018-08-09T03:33:47.856Z,1028.65
2018-08-09T03:34:47.858Z,1028.69
2018-08-09T03:35:47.851Z,1028.66
2018-08-09T03:36:47.849Z,1028.7
2018-08-09T03:37:47.847Z,1028.7
2018-08-09T03:38:47.845Z,1028.74
2018-08-09T03:39:47.843Z,1028.74
2018-08-09T03:40:47.841Z,1028.75
2018-08-09T03:41:47.838Z,1028.74
2018-08-09T03:42:47.835Z,1028.76
2018-08-09T03:43:47.833Z,1028.76
2018-08-09T03:44:47.831Z,1028.73
2018-08-09T03:45:47.828Z,1028.73
2018-08-09T03:46:47.826Z,1028.72
2018-08-09T03:47:47.824Z,1028.7
2018-08-09T03:48:47.821Z,1028.69
2018-08-09T03:49:47.822Z,1028.68
2018-08-09T03:50:47.816Z,1028.7
2018-08-09T03:51:47.815Z,1028.71
2018-08-09T03:52:47.812Z,1028.72
2018-08-09T03:53:47.815Z,1028.74
2018-08-09T03:54:47.808Z,1028.73
2018-08-09T03:55:47.807Z,1028.72
2018-08-09T03:56:47.803Z,1028.74
2018-08-09T03:57:47.801Z,1028.67
2018-08-09T03:58:47.799Z,1028.67
2018-08-09T03:59:47.923Z,1028.64
2018-08-09T04:00:47.793Z,1028.65
2018-08-09T04:01:47.792Z,1028.67
2018-08-09T04:02:47.794Z,1028.67
2018-08-09T04:03:47.787Z,1028.68
2018-08-09T04:04:47.785Z,1028.65
2018-08-09T04:05:47.783Z,1028.61
2018-08-09T04:06:47.781Z,1028.61
2018-08-09T04:07:47.778Z,1028.58
2018-08-09T04:08:47.776Z,1028.6
2018-08-09T04:09:47.774Z,1028.54
2018-08-09T04:10:47.772Z,1028.52
2018-08-09T04:11:47.790Z,1028.46
2018-08-09T04:12:47.768Z,1028.44
2018-08-09T04:13:47.766Z,1028.4
2018-08-09T04:14:47.763Z,1028.32
2018-08-09T04:15:47.761Z,1028.28
2018-08-09T04:16:47.759Z,1028.24
2018-08-09T04:17:47.758Z,1028.23
2018-08-09T04:18:47.758Z,1028.23
2018-08-09T04:19:47.753Z,1028.23
2018-08-09T04:20:47.756Z,1028.22
2018-08-09T04:21:47.750Z,1028.21
2018-08-09T04:22:47.748Z,1028.21
2018-08-09T04:23:47.748Z,1028.18
2018-08-09T04:24:47.746Z,1028.14
2018-08-09T04:25:47.744Z,1028.13
2018-08-09T04:26:47.741Z,1028.11
2018-08-09T04:27:47.740Z,1028.12
2018-08-09T04:28:47.738Z,1028.15
2018-08-09T04:29:47.736Z,1028.17
2018-08-09T04:30:47.735Z,1028.17
2018-08-09T04:31:47.734Z,1028.17
2018-08-09T04:32:47.731Z,1028.17
2018-08-09T04:33:47.729Z,1028.12
2018-08-09T04:34:47.729Z,1028.09
2018-08-09T04:35:47.728Z,1028.02
2018-08-09T04:36:47.726Z,1027.97
2018-08-09T04:37:47.765Z,1027.81
2018-08-09T04:38:47.724Z,1027.79
2018-08-09T04:39:47.722Z,1027.66
2018-08-09T04:40:47.720Z,1027.54
2018-08-09T04:41:47.719Z,1027.45
2018-08-09T04:42:47.718Z,1027.42
2018-08-09T04:43:47.717Z,1027.36
2018-08-09T04:44:47.716Z,1027.34
2018-08-09T04:45:47.717Z,1027.4
2018-08-09T04:46:47.716Z,1027.33
2018-08-09T04:47:47.714Z,1027.24
2018-08-09T04:48:47.713Z,1027.08
2018-08-09T04:49:47.713Z,1027.01
2018-08-09T04:50:47.713Z,1026.97
2018-08-09T04:51:47.711Z,1026.88
2018-08-09T04:52:47.711Z,1026.81
2018-08-09T04:53:47.713Z,1026.72
2018-08-09T04:54:47.711Z,1026.63
2018-08-09T04:55:47.712Z,1026.6
2018-08-09T04:56:47.712Z,1026.47
2018-08-09T04:57:47.715Z,1026.42
2018-08-09T04:58:47.712Z,1026.45
2018-08-09T04:59:47.713Z,1026.38
2018-08-09T05:00:47.713Z,1026.34
2018-08-09T05:01:47.714Z,1026.29
2018-08-09T05:02:47.715Z,1026.26
2018-08-09T05:03:47.716Z,1026.15
2018-08-09T05:04:47.721Z,1026.23
2018-08-09T05:05:47.718Z,1026.13
2018-08-09T05:06:47.719Z,1026.14
2018-08-09T05:07:47.721Z,1026.11
2018-08-09T05:08:47.726Z,1026.09
2018-08-09T05:09:47.729Z,1026.12
2018-08-09T05:10:47.725Z,1026.27
2018-08-09T05:11:47.728Z,1026.33
2018-08-09T05:12:47.737Z,1026.21
2018-08-09T05:13:47.732Z,1026.17
2018-08-09T05:14:47.734Z,1026.06
2018-08-09T05:15:47.745Z,1025.92
2018-08-09T05:16:47.738Z,1025.81
2018-08-09T05:17:47.744Z,1025.76
2018-08-09T05:18:47.743Z,1025.68
2018-08-09T05:19:47.745Z,1025.55
2018-08-09T05:20:47.750Z,1025.49
2018-08-09T05:21:47.750Z,1025.41
2018-08-09T05:22:47.755Z,1025.38
2018-08-09T05:23:47.756Z,1025.32
2018-08-09T05:24:47.759Z,1025.34
2018-08-09T05:25:47.762Z,1025.33
2018-08-09T05:26:47.766Z,1025.23
2018-08-09T05:27:47.768Z,1025.16
2018-08-09T05:28:47.773Z,1025.14
2018-08-09T05:29:47.776Z,1025.17
2018-08-09T05:30:47.780Z,1025.09
2018-08-09T05:31:47.784Z,1025.01
2018-08-09T05:32:47.788Z,1024.92
2018-08-09T05:33:47.792Z,1024.85
2018-08-09T05:34:47.796Z,1024.85
2018-08-09T05:35:47.804Z,1024.86
2018-08-09T05:36:47.805Z,1024.86
2018-08-09T05:37:47.809Z,1024.85
2018-08-09T05:38:47.818Z,1024.89
2018-08-09T05:39:47.819Z,1024.8
2018-08-09T05:40:47.824Z,1024.76
2018-08-09T05:41:47.833Z,1024.75
2018-08-09T05:42:47.835Z,1024.73
2018-08-09T05:43:47.839Z,1024.67
2018-08-09T05:44:47.845Z,1024.69
2018-08-09T05:45:47.850Z,1024.66
2018-08-09T05:46:47.855Z,1024.65
2018-08-09T05:47:47.864Z,1024.6
2018-08-09T05:48:47.867Z,1024.53
2018-08-09T05:49:47.874Z,1024.57
2018-08-09T05:50:47.878Z,1024.54
2018-08-09T05:51:47.884Z,1024.57
2018-08-09T05:52:47.942Z,1024.51
2018-08-09T05:53:47.895Z,1024.5
2018-08-09T05:54:47.901Z,1024.42
2018-08-09T05:55:47.910Z,1024.39
2018-08-09T05:56:47.913Z,1024.33
2018-08-09T05:57:47.926Z,1024.22
2018-08-09T05:58:47.926Z,1024.06
2018-08-09T05:59:47.933Z,1024.08
2018-08-09T06:00:47.939Z,1024.11
2018-08-09T06:01:47.949Z,1024.12
2018-08-09T06:02:47.953Z,1024.16
2018-08-09T06:03:47.960Z,1024.11
2018-08-09T06:04:47.967Z,1024.2
2018-08-09T06:05:48.077Z,1024.21
2018-08-09T06:06:47.981Z,1024.12
2018-08-09T06:07:47.987Z,1024.08
2018-08-09T06:08:47.994Z,1024.02
2018-08-09T06:09:48.002Z,1024
2018-08-09T06:10:48.009Z,1023.93
2018-08-09T06:11:48.017Z,1023.87
2018-08-09T06:12:48.024Z,1023.84
2018-08-09T06:13:48.031Z,1023.78
2018-08-09T06:14:48.039Z,1023.82
2018-08-09T06:15:48.049Z,1023.81
2018-08-09T06:16:48.055Z,1023.81
2018-08-09T06:17:48.062Z,1023.77
2018-08-09T06:18:48.097Z,1023.81
2018-08-09T06:19:48.078Z,1023.9
2018-08-09T06:20:48.090Z,1023.84
2018-08-09T06:21:48.095Z,1023.81
2018-08-09T06:22:48.101Z,1023.78
2018-08-09T06:23:48.110Z,1023.81
2018-08-09T06:24:48.121Z,1023.73
2018-08-09T06:25:48.131Z,1023.77
2018-08-09T06:26:48.135Z,1023.69
2018-08-09T06:27:48.144Z,1023.72
2018-08-09T06:28:48.279Z,1023.77
2018-08-09T06:29:48.162Z,1023.84
2018-08-09T06:30:48.170Z,1023.81
2018-08-09T06:31:48.178Z,1023.79
2018-08-09T06:32:48.187Z,1023.75
2018-08-09T06:33:48.196Z,1023.77
2018-08-09T06:34:48.205Z,1023.68
2018-08-09T06:35:48.213Z,1023.61
2018-08-09T06:36:48.223Z,1023.68
2018-08-09T06:38:48.239Z,1023.66
2018-08-09T06:39:48.247Z,1023.67
2018-08-09T06:40:48.256Z,1023.69
2018-08-09T06:41:48.265Z,1023.78
2018-08-09T06:42:48.274Z,1023.81
2018-08-09T06:43:48.283Z,1023.83
2018-08-09T06:44:48.291Z,1023.83
2018-08-09T06:46:48.309Z,1023.74
2018-08-09T06:48:01.051Z,1024.06
2018-08-09T06:48:48.328Z,1024.02
2018-08-09T06:49:48.337Z,1023.96
2018-08-09T06:50:48.346Z,1023.93
2018-08-09T06:51:48.354Z,1023.74
2018-08-09T06:52:48.363Z,1023.68
2018-08-09T06:53:48.372Z,1023.56
2018-08-09T06:54:48.383Z,1023.5
2018-08-09T06:55:48.389Z,1023.45
2018-08-09T06:56:48.398Z,1023.4
2018-08-09T06:57:48.407Z,1023.39
2018-08-09T06:58:48.415Z,1023.33
2018-08-09T06:59:48.425Z,1023.29
2018-08-09T07:00:48.433Z,1023.19
2018-08-09T07:01:48.442Z,1023.18
2018-08-09T07:03:01.188Z,1023.15
2018-08-09T07:03:48.461Z,1023.17
2018-08-09T07:04:48.470Z,1023.15
2018-08-09T07:05:48.479Z,1023.1
2018-08-09T07:06:48.489Z,1023.13
2018-08-09T07:07:48.498Z,1023.11
2018-08-09T07:08:48.507Z,1023.09
2018-08-09T07:09:48.515Z,1023.12
2018-08-09T07:10:48.525Z,1023.12
2018-08-09T07:11:48.535Z,1023.14
2018-08-09T07:12:48.605Z,1023.1
2018-08-09T07:13:48.553Z,1023.08
2018-08-09T07:14:48.563Z,1023.06
2018-08-09T07:15:48.574Z,1022.97
2018-08-09T07:16:48.584Z,1022.99
2018-08-09T07:17:48.592Z,1022.93
2018-08-09T07:18:48.602Z,1022.97
2018-08-09T07:19:48.612Z,1022.98
2018-08-09T07:20:48.621Z,1022.93
2018-08-09T07:21:48.632Z,1022.84
2018-08-09T07:22:48.649Z,1022.8
2018-08-09T07:23:48.660Z,1022.73
2018-08-09T07:24:48.662Z,1022.66
2018-08-09T07:25:48.673Z,1022.56
2018-08-09T07:26:48.682Z,1022.49
2018-08-09T07:27:48.693Z,1022.41
2018-08-09T07:28:48.703Z,1022.42
2018-08-09T07:29:48.713Z,1022.5
2018-08-09T07:30:48.725Z,1022.49
2018-08-09T07:31:48.734Z,1022.59
2018-08-09T07:32:48.749Z,1022.59
2018-08-09T07:33:48.768Z,1022.6
2018-08-09T07:34:48.766Z,1022.52
2018-08-09T07:35:48.780Z,1022.4
2018-08-09T07:36:48.787Z,1022.37
2018-08-09T07:37:48.798Z,1022.35
2018-08-09T07:38:48.809Z,1022.36
2018-08-09T07:39:48.907Z,1022.44
2018-08-09T07:40:48.830Z,1022.47
2018-08-09T07:41:48.842Z,1022.48
2018-08-09T07:42:48.851Z,1022.53
2018-08-09T07:43:48.863Z,1022.58
2018-08-09T07:44:48.874Z,1022.68
2018-08-09T07:45:48.886Z,1022.76
2018-08-09T07:46:48.894Z,1022.81
2018-08-09T07:47:48.906Z,1022.84
2018-08-09T07:48:48.984Z,1022.73
2018-08-09T07:49:48.928Z,1022.67
2018-08-09T07:50:48.938Z,1022.63
2018-08-09T07:51:48.949Z,1022.48
2018-08-09T07:52:48.960Z,1022.4
2018-08-09T07:53:48.970Z,1022.31
2018-08-09T07:54:48.981Z,1022.28
2018-08-09T07:55:48.999Z,1022.46
2018-08-09T07:56:49.003Z,1022.53
2018-08-09T07:57:49.012Z,1022.61
2018-08-09T07:58:49.023Z,1022.58
2018-08-09T07:59:49.044Z,1022.52
2018-08-09T08:00:49.069Z,1022.45
2018-08-09T08:01:49.055Z,1022.33
2018-08-09T08:02:49.070Z,1022.27
2018-08-09T08:03:49.077Z,1022.29
2018-08-09T08:04:49.088Z,1022.28
2018-08-09T08:05:49.171Z,1022.22
2018-08-09T08:06:49.109Z,1022.2
2018-08-09T08:07:49.120Z,1022.17
2018-08-09T08:08:49.130Z,1022.15
2018-08-09T08:09:49.141Z,1022.05
2018-08-09T08:10:49.152Z,1022.08
2018-08-09T08:11:49.167Z,1022.1
2018-08-09T08:12:49.173Z,1022.08
2018-08-09T08:13:49.185Z,1022.05
2018-08-09T08:14:49.196Z,1021.99
2018-08-09T08:15:49.206Z,1021.93
2018-08-09T08:16:49.218Z,1022.06
2018-08-09T08:17:49.228Z,1022.07
2018-08-09T08:18:49.245Z,1022.11
2018-08-09T08:19:49.250Z,1022.14
2018-08-09T08:20:49.311Z,1022.07
2018-08-09T08:21:49.273Z,1022.07
2018-08-09T08:22:49.284Z,1022
2018-08-09T08:23:49.297Z,1021.96
2018-08-09T08:24:49.308Z,1021.88
2018-08-09T08:25:49.319Z,1021.85
2018-08-09T08:26:49.436Z,1021.76
2018-08-09T08:27:49.341Z,1021.59
2018-08-09T08:28:49.352Z,1021.45
2018-08-09T08:29:49.362Z,1021.32
2018-08-09T08:30:49.373Z,1021.21
2018-08-09T08:31:49.390Z,1021.11
2018-08-09T08:32:49.397Z,1021.17
2018-08-09T08:33:49.407Z,1021.18
2018-08-09T08:34:49.423Z,1021.16
2018-08-09T08:35:49.431Z,1021.15
2018-08-09T08:36:49.443Z,1021.16
2018-08-09T08:37:49.453Z,1021.11
2018-08-09T08:38:49.465Z,1021.07
2018-08-09T08:39:49.477Z,1021
2018-08-09T08:40:49.488Z,1021.04
2018-08-09T08:41:49.729Z,1021.06
2018-08-09T08:42:49.511Z,1021.23
2018-08-09T08:43:49.523Z,1021.7
2018-08-09T08:44:49.533Z,1022.26
2018-08-09T08:45:49.545Z,1022.84
2018-08-09T08:46:49.557Z,1023.23
2018-08-09T08:47:49.568Z,1023.61
2018-08-09T08:48:49.578Z,1023.89
2018-08-09T08:49:49.590Z,1024.09
2018-08-09T08:50:49.600Z,1024.33
2018-08-09T08:51:49.611Z,1024.47
2018-08-09T08:52:49.621Z,1024.66
2018-08-09T08:53:49.637Z,1024.81
2018-08-09T08:54:49.640Z,1024.98
2018-08-09T08:55:49.649Z,1025.13
2018-08-09T08:56:49.674Z,1025.28
2018-08-09T08:57:49.668Z,1025.37
2018-08-09T08:58:49.677Z,1025.38
2018-08-09T08:59:49.685Z,1025.47
2018-08-09T09:00:49.751Z,1025.55
2018-08-09T09:01:49.702Z,1025.61
2018-08-09T09:02:49.710Z,1025.59
2018-08-09T09:03:49.718Z,1025.65
2018-08-09T09:04:49.726Z,1025.73
2018-08-09T09:05:49.734Z,1025.77
2018-08-09T09:06:49.741Z,1025.81
2018-08-09T09:07:49.749Z,1025.84
2018-08-09T09:08:49.756Z,1025.92
2018-08-09T09:09:49.764Z,1025.93
2018-08-09T09:10:49.770Z,1025.91
2018-08-09T09:11:49.778Z,1025.94
2018-08-09T09:12:49.784Z,1025.98
2018-08-09T09:13:49.853Z,1025.99
2018-08-09T09:14:49.798Z,1025.96
2018-08-09T09:15:49.804Z,1025.97
2018-08-09T09:16:49.811Z,1026
2018-08-09T09:17:49.824Z,1025.99
2018-08-09T09:18:49.824Z,1026.01
2018-08-09T09:19:49.830Z,1025.99
2018-08-09T09:20:49.837Z,1026.01
2018-08-09T09:21:49.846Z,1026.05
2018-08-09T09:22:49.849Z,1026.04
2018-08-09T09:23:49.858Z,1026.1
2018-08-09T09:24:49.861Z,1026.09
2018-08-09T09:25:49.866Z,1026.09
2018-08-09T09:26:49.873Z,1026.13
2018-08-09T09:27:49.878Z,1026.16
2018-08-09T09:28:49.885Z,1026.13
2018-08-09T09:29:49.889Z,1026.08
2018-08-09T09:30:49.895Z,1026.09
2018-08-09T09:31:49.918Z,1026.06
2018-08-09T09:32:49.906Z,1026
2018-08-09T09:33:49.914Z,1026.01
2018-08-09T09:34:49.917Z,1026.02
2018-08-09T09:35:49.926Z,1026.06
2018-08-09T09:36:49.930Z,1026.05
2018-08-09T09:37:49.935Z,1026.03
2018-08-09T09:38:49.939Z,1026.01
2018-08-09T09:39:49.944Z,1025.99
2018-08-09T09:40:49.949Z,1026.02
2018-08-09T09:41:49.956Z,1026.06
2018-08-09T09:42:49.961Z,1026.07
2018-08-09T09:43:49.965Z,1026.03
2018-08-09T09:44:49.973Z,1026.02
2018-08-09T09:45:49.977Z,1026.03
2018-08-09T09:46:49.982Z,1025.99
2018-08-09T09:47:49.991Z,1025.99
2018-08-09T09:48:49.992Z,1025.93
2018-08-09T09:49:50.043Z,1025.9
2018-08-09T09:50:50.004Z,1025.89
2018-08-09T09:51:50.008Z,1025.9
2018-08-09T09:52:50.014Z,1025.91
2018-08-09T09:53:50.022Z,1025.88
2018-08-09T09:54:50.039Z,1025.89
2018-08-09T09:55:50.029Z,1025.87
2018-08-09T09:56:50.034Z,1025.89
2018-08-09T09:57:50.040Z,1025.87
2018-08-09T09:58:50.050Z,1025.93
2018-08-09T09:59:50.051Z,1025.89
2018-08-09T10:00:50.056Z,1025.85
2018-08-09T10:01:50.101Z,1025.84
2018-08-09T10:02:50.066Z,1025.8
2018-08-09T10:03:50.075Z,1025.77
2018-08-09T10:04:50.076Z,1025.74
2018-08-09T10:05:50.081Z,1025.74
2018-08-09T10:06:50.086Z,1025.7
2018-08-09T10:07:50.092Z,1025.66
2018-08-09T10:08:50.097Z,1025.61
2018-08-09T10:09:50.101Z,1025.58
2018-08-09T10:10:50.106Z,1025.51
2018-08-09T10:11:50.112Z,1025.45
2018-08-09T10:12:50.195Z,1025.41
2018-08-09T10:13:50.122Z,1025.34
2018-08-09T10:14:50.169Z,1025.3
2018-08-09T10:15:50.133Z,1025.23
2018-08-09T10:16:50.138Z,1025.27
2018-08-09T10:17:50.145Z,1025.27
2018-08-09T10:18:50.148Z,1025.32
2018-08-09T10:19:50.210Z,1025.31
2018-08-09T10:20:50.158Z,1025.31
2018-08-09T10:21:50.163Z,1025.35
2018-08-09T10:22:50.170Z,1025.3
2018-08-09T10:23:50.176Z,1025.17
2018-08-09T10:24:50.179Z,1025.2
2018-08-09T10:25:50.188Z,1025.13
2018-08-09T10:26:50.190Z,1025.16
2018-08-09T10:27:50.195Z,1025.07
2018-08-09T10:28:50.201Z,1025.01
2018-08-09T10:29:50.253Z,1024.98
2018-08-09T10:30:50.211Z,1024.93
2018-08-09T10:31:50.216Z,1024.94
2018-08-09T10:32:50.223Z,1024.9
2018-08-09T10:33:50.229Z,1024.94
2018-08-09T10:34:50.233Z,1024.95
2018-08-09T10:35:50.239Z,1024.92
2018-08-09T10:36:50.245Z,1024.88
2018-08-09T10:37:50.250Z,1024.82
2018-08-09T10:38:50.255Z,1024.81
2018-08-09T10:39:50.261Z,1024.77
2018-08-09T10:40:50.267Z,1024.82
2018-08-09T10:41:50.271Z,1024.75
2018-08-09T10:42:50.345Z,1024.77
2018-08-09T10:43:50.282Z,1024.7
2018-08-09T10:44:50.292Z,1024.72
2018-08-09T10:45:50.293Z,1024.71
2018-08-09T10:46:50.302Z,1024.67
2018-08-09T10:47:50.305Z,1024.72
2018-08-09T10:48:50.313Z,1024.76
2018-08-09T10:49:50.317Z,1024.74
2018-08-09T10:50:50.321Z,1024.69
2018-08-09T10:51:50.327Z,1024.6
2018-08-09T10:52:50.332Z,1024.53
2018-08-09T10:53:50.338Z,1024.5
2018-08-09T10:54:50.344Z,1024.49
2018-08-09T10:55:50.352Z,1024.44
2018-08-09T10:56:50.355Z,1024.5
2018-08-09T10:57:50.362Z,1024.42
2018-08-09T10:58:50.367Z,1024.4
2018-08-09T10:59:50.372Z,1024.35
2018-08-09T11:00:50.377Z,1024.32
2018-08-09T11:01:50.436Z,1024.24
2018-08-09T11:02:50.390Z,1024.16
2018-08-09T11:03:50.397Z,1024.11
2018-08-09T11:04:50.400Z,1024.07
2018-08-09T11:05:50.409Z,1024.06
2018-08-09T11:06:50.413Z,1024.04
2018-08-09T11:07:50.421Z,1024.02
2018-08-09T11:08:50.424Z,1024.04
2018-08-09T11:09:50.430Z,1024.07
2018-08-09T11:10:50.440Z,1024.03
2018-08-09T11:11:50.441Z,1024.06
2018-08-09T11:12:50.448Z,1024.09
2018-08-09T11:13:50.453Z,1024.1
2018-08-09T11:14:50.459Z,1024.05
2018-08-09T11:15:50.466Z,1024
2018-08-09T11:16:50.482Z,1023.96
2018-08-09T11:17:50.479Z,1023.93
2018-08-09T11:18:50.484Z,1023.95
2018-08-09T11:19:50.489Z,1023.94
2018-08-09T11:20:50.495Z,1023.92
2018-08-09T11:21:50.502Z,1023.91
2018-08-09T11:22:50.507Z,1023.91
2018-08-09T11:23:50.517Z,1023.87
2018-08-09T11:24:50.520Z,1023.81
2018-08-09T11:25:50.525Z,1023.78
2018-08-09T11:26:50.532Z,1023.76
2018-08-09T11:27:50.538Z,1023.76
2018-08-09T11:28:50.544Z,1023.77
2018-08-09T11:29:50.550Z,1023.77
2018-08-09T11:30:50.556Z,1023.75
2018-08-09T11:31:50.563Z,1023.66
2018-08-09T11:32:50.569Z,1023.6
2018-08-09T11:33:50.574Z,1023.56
2018-08-09T11:34:50.580Z,1023.48
2018-08-09T11:35:50.590Z,1023.45
2018-08-09T11:36:50.592Z,1023.41
2018-08-09T11:37:50.600Z,1023.47
2018-08-09T11:38:50.605Z,1023.44
2018-08-09T11:39:50.652Z,1023.46
2018-08-09T11:40:50.618Z,1023.45
2018-08-09T11:41:50.623Z,1023.34
2018-08-09T11:42:50.630Z,1023.36
2018-08-09T11:43:50.638Z,1023.25
2018-08-09T11:44:50.642Z,1023.27
2018-08-09T11:45:50.648Z,1023.24
2018-08-09T11:46:50.655Z,1023.23
2018-08-09T11:47:50.660Z,1023.19
2018-08-09T11:48:50.671Z,1023.2
2018-08-09T11:49:50.673Z,1023.2
2018-08-09T11:50:50.680Z,1023.14
2018-08-09T11:51:50.686Z,1023.12
2018-08-09T11:52:50.693Z,1023.08
2018-08-09T11:53:50.699Z,1023.04
2018-08-09T11:54:50.704Z,1023
2018-08-09T11:55:50.711Z,1023.02
2018-08-09T11:56:50.746Z,1022.94
2018-08-09T11:57:50.728Z,1022.89
2018-08-09T11:58:50.730Z,1022.87
2018-08-09T11:59:50.737Z,1022.91
2018-08-09T12:00:50.746Z,1022.92
2018-08-09T12:01:50.807Z,1022.93
2018-08-09T12:02:50.762Z,1022.93
2018-08-09T12:03:50.763Z,1022.88
2018-08-09T12:04:50.769Z,1022.87
2018-08-09T12:05:50.776Z,1022.83
2018-08-09T12:06:50.781Z,1022.87
2018-08-09T12:07:50.788Z,1022.8
2018-08-09T12:08:50.795Z,1022.82
2018-08-09T12:09:50.801Z,1022.82
2018-08-09T12:10:50.808Z,1022.8
2018-08-09T12:11:50.814Z,1022.81
2018-08-09T12:12:50.823Z,1022.76